sensor_id;sensor_type;location;lat;lon;timestamp;pressure;altitude;pressure_sealevel;temperature;humidity
30935;BME280;51033;42.648;23.292;2022-11-06T00:01:30;93418.81;;;14.09;44.81
30935;BME280;51033;42.648;23.292;2022-11-06T00:03:56;93409.41;;;14.00;44.94
30935;BME280;51033;42.648;23.292;2022-11-06T00:06:22;93407.09;;;13.98;44.81
30935;BME280;51033;42.648;23.292;2022-11-06T00:09:08;93404.50;;;14.02;44.73
30935;BME280;51033;42.648;23.292;2022-11-06T00:11:34;93399.56;;;14.04;44.65
30935;BME280;51033;42.648;23.292;2022-11-06T00:14:00;93401.91;;;14.05;44.88
30935;BME280;51033;42.648;23.292;2022-11-06T00:16:26;93409.34;;;14.12;44.91
30935;BME280;51033;42.648;23.292;2022-11-06T00:18:52;93400.03;;;14.06;44.75
30935;BME280;51033;42.648;23.292;2022-11-06T00:21:20;93408.38;;;14.04;44.69
30935;BME280;51033;42.648;23.292;2022-11-06T00:23:46;93395.88;;;13.93;45.05
30935;BME280;51033;42.648;23.292;2022-11-06T00:26:14;93402.50;;;13.99;45.12
30935;BME280;51033;42.648;23.292;2022-11-06T00:28:40;93402.50;;;13.99;44.80
30935;BME280;51033;42.648;23.292;2022-11-06T00:31:10;93379.47;;;13.79;44.97
30935;BME280;51033;42.648;23.292;2022-11-06T00:33:36;93392.97;;;13.98;44.73
30935;BME280;51033;42.648;23.292;2022-11-06T00:36:06;93377.84;;;13.90;44.89
30935;BME280;51033;42.648;23.292;2022-11-06T00:38:33;93355.75;;;13.77;44.71
30935;BME280;51033;42.648;23.292;2022-11-06T00:41:06;93377.50;;;13.91;44.74
30935;BME280;51033;42.648;23.292;2022-11-06T00:43:32;93386.97;;;13.89;44.71
30935;BME280;51033;42.648;23.292;2022-11-06T00:46:10;93407.09;;;13.98;44.89
30935;BME280;51033;42.648;23.292;2022-11-06T00:48:36;93401.66;;;13.95;44.86
30935;BME280;51033;42.648;23.292;2022-11-06T00:51:03;93399.66;;;13.92;44.94
30935;BME280;51033;42.648;23.292;2022-11-06T00:53:29;93398.13;;;13.91;45.07
30935;BME280;51033;42.648;23.292;2022-11-06T00:55:54;93374.81;;;13.75;45.55
30935;BME280;51033;42.648;23.292;2022-11-06T00:58:19;93394.75;;;13.94;45.24
30935;BME280;51033;42.648;23.292;2022-11-06T01:00:45;93356.09;;;13.75;45.64
30935;BME280;51033;42.648;23.292;2022-11-06T01:03:10;93387.59;;;13.98;45.35
30935;BME280;51033;42.648;23.292;2022-11-06T01:05:35;93386.84;;;13.97;45.27
30935;BME280;51033;42.648;23.292;2022-11-06T01:08:01;93384.94;;;13.98;45.14
30935;BME280;51033;42.648;23.292;2022-11-06T01:10:26;93372.75;;;13.85;45.15
30935;BME280;51033;42.648;23.292;2022-11-06T01:12:52;93354.38;;;13.67;45.23
30935;BME280;51033;42.648;23.292;2022-11-06T01:15:17;93355.03;;;13.64;45.20
30935;BME280;51033;42.648;23.292;2022-11-06T01:17:42;93364.28;;;13.67;45.68
30935;BME280;51033;42.648;23.292;2022-11-06T01:20:08;93355.28;;;13.59;45.70
30935;BME280;51033;42.648;23.292;2022-11-06T01:22:34;93377.19;;;13.65;45.87
30935;BME280;51033;42.648;23.292;2022-11-06T01:24:59;93360.97;;;13.58;46.14
30935;BME280;51033;42.648;23.292;2022-11-06T01:27:24;93317.00;;;13.12;46.69
30935;BME280;51033;42.648;23.292;2022-11-06T01:29:50;93338.38;;;13.40;46.04
30935;BME280;51033;42.648;23.292;2022-11-06T01:32:15;93334.13;;;13.39;46.27
30935;BME280;51033;42.648;23.292;2022-11-06T01:34:40;93353.00;;;13.46;46.09
30935;BME280;51033;42.648;23.292;2022-11-06T01:37:06;93340.13;;;13.36;46.26
30935;BME280;51033;42.648;23.292;2022-11-06T01:39:31;93337.91;;;13.38;46.31
30935;BME280;51033;42.648;23.292;2022-11-06T01:41:57;93358.63;;;13.56;46.23
30935;BME280;51033;42.648;23.292;2022-11-06T01:46:57;93362.50;;;13.43;46.65
30935;BME280;51033;42.648;23.292;2022-11-06T01:49:24;93359.72;;;13.40;46.84
30935;BME280;51033;42.648;23.292;2022-11-06T01:51:56;93361.63;;;13.39;46.78
30935;BME280;51033;42.648;23.292;2022-11-06T01:54:24;93326.59;;;13.01;47.21
30935;BME280;51033;42.648;23.292;2022-11-06T01:56:53;93351.03;;;13.15;47.24
30935;BME280;51033;42.648;23.292;2022-11-06T01:59:25;93330.19;;;12.93;47.72
30935;BME280;51033;42.648;23.292;2022-11-06T02:01:52;93325.97;;;12.92;47.70
30935;BME280;51033;42.648;23.292;2022-11-06T02:04:26;93356.22;;;12.96;48.11
30935;BME280;51033;42.648;23.292;2022-11-06T02:06:52;93291.94;;;12.61;48.11
30935;BME280;51033;42.648;23.292;2022-11-06T02:09:18;93354.31;;;12.96;48.04
30935;BME280;51033;42.648;23.292;2022-11-06T02:11:58;93328.22;;;12.89;47.94
30935;BME280;51033;42.648;23.292;2022-11-06T02:14:47;93354.66;;;12.95;48.25
30935;BME280;51033;42.648;23.292;2022-11-06T02:28:23;93334.22;;;12.22;50.60
30935;BME280;51033;42.648;23.292;2022-11-06T02:30:51;93329.84;;;11.81;51.30
30935;BME280;51033;42.648;23.292;2022-11-06T02:33:24;93307.13;;;11.39;51.82
30935;BME280;51033;42.648;23.292;2022-11-06T02:35:57;93308.38;;;11.08;53.54
30935;BME280;51033;42.648;23.292;2022-11-06T02:38:35;93345.16;;;11.06;54.00
30935;BME280;51033;42.648;23.292;2022-11-06T02:41:05;93328.91;;;10.87;54.39
30935;BME280;51033;42.648;23.292;2022-11-06T02:43:42;93331.16;;;10.77;54.58
30935;BME280;51033;42.648;23.292;2022-11-06T02:46:16;93305.03;;;10.58;54.20
30935;BME280;51033;42.648;23.292;2022-11-06T02:49:06;93321.13;;;10.61;52.64
30935;BME280;51033;42.648;23.292;2022-11-06T02:51:36;93356.66;;;10.98;52.83
30935;BME280;51033;42.648;23.292;2022-11-06T02:54:04;93330.28;;;11.05;50.98
30935;BME280;51033;42.648;23.292;2022-11-06T02:56:37;93350.22;;;11.53;49.58
30935;BME280;51033;42.648;23.292;2022-11-06T02:59:10;93342.03;;;11.58;49.51
30935;BME280;51033;42.648;23.292;2022-11-06T03:01:47;93358.50;;;11.96;48.11
30935;BME280;51033;42.648;23.292;2022-11-06T03:04:18;93348.06;;;11.91;47.59
30935;BME280;51033;42.648;23.292;2022-11-06T03:06:49;93350.06;;;11.94;47.52
30935;BME280;51033;42.648;23.292;2022-11-06T03:09:18;93366.28;;;12.14;47.49
30935;BME280;51033;42.648;23.292;2022-11-06T03:11:50;93362.28;;;12.20;47.29
30935;BME280;51033;42.648;23.292;2022-11-06T03:14:54;93352.72;;;12.19;47.67
30935;BME280;51033;42.648;23.292;2022-11-06T03:17:46;93343.28;;;12.33;47.66
30935;BME280;51033;42.648;23.292;2022-11-06T03:22:59;93363.50;;;12.34;47.38
30935;BME280;51033;42.648;23.292;2022-11-06T03:28:31;93345.16;;;12.33;46.53
30935;BME280;51033;42.648;23.292;2022-11-06T03:31:01;93348.84;;;12.40;46.58
30935;BME280;51033;42.648;23.292;2022-11-06T03:36:09;93362.97;;;11.92;51.09
30935;BME280;51033;42.648;23.292;2022-11-06T03:38:45;93380.16;;;11.95;52.30
30935;BME280;51033;42.648;23.292;2022-11-06T03:41:21;93390.59;;;12.00;52.78
30935;BME280;51033;42.648;23.292;2022-11-06T03:43:48;93397.28;;;12.06;52.77
30935;BME280;51033;42.648;23.292;2022-11-06T03:46:18;93384.81;;;11.98;53.85
30935;BME280;51033;42.648;23.292;2022-11-06T03:48:52;93383.25;;;11.85;54.35
30935;BME280;51033;42.648;23.292;2022-11-06T03:51:31;93357.72;;;11.84;54.46
30935;BME280;51033;42.648;23.292;2022-11-06T03:54:05;93386.75;;;12.22;53.95
30935;BME280;51033;42.648;23.292;2022-11-06T03:56:38;93384.06;;;12.10;54.73
30935;BME280;51033;42.648;23.292;2022-11-06T03:59:07;93355.81;;;11.72;56.05
30935;BME280;51033;42.648;23.292;2022-11-06T04:01:36;93363.03;;;11.72;56.51
30935;BME280;51033;42.648;23.292;2022-11-06T04:04:04;93387.53;;;11.53;57.79
30935;BME280;51033;42.648;23.292;2022-11-06T04:06:36;93362.09;;;11.23;58.48
30935;BME280;51033;42.648;23.292;2022-11-06T04:09:05;93383.78;;;11.45;58.11
30935;BME280;51033;42.648;23.292;2022-11-06T04:11:50;93390.34;;;10.73;60.90
30935;BME280;51033;42.648;23.292;2022-11-06T04:14:37;93376.56;;;10.21;62.75
30935;BME280;51033;42.648;23.292;2022-11-06T04:17:08;93404.84;;;10.17;63.91
30935;BME280;51033;42.648;23.292;2022-11-06T04:19:35;93408.97;;;10.06;64.67
30935;BME280;51033;42.648;23.292;2022-11-06T04:37:57;93415.66;;;10.80;63.82
30935;BME280;51033;42.648;23.292;2022-11-06T04:40:44;93387.75;;;11.06;61.90
30935;BME280;51033;42.648;23.292;2022-11-06T04:43:27;93417.38;;;11.38;60.38
30935;BME280;51033;42.648;23.292;2022-11-06T04:45:57;93423.25;;;11.64;59.48
30935;BME280;51033;42.648;23.292;2022-11-06T04:48:24;93413.13;;;11.90;58.13
30935;BME280;51033;42.648;23.292;2022-11-06T04:50:53;93417.81;;;12.18;57.33
30935;BME280;51033;42.648;23.292;2022-11-06T04:53:20;93428.28;;;12.35;56.50
30935;BME280;51033;42.648;23.292;2022-11-06T04:55:55;93411.75;;;12.41;55.60
30935;BME280;51033;42.648;23.292;2022-11-06T04:58:20;93407.63;;;12.56;55.07
30935;BME280;51033;42.648;23.292;2022-11-06T05:00:48;93402.28;;;12.68;54.73
30935;BME280;51033;42.648;23.292;2022-11-06T05:03:15;93407.41;;;12.73;54.61
30935;BME280;51033;42.648;23.292;2022-11-06T05:05:41;93429.41;;;12.95;54.63
30935;BME280;51033;42.648;23.292;2022-11-06T05:08:12;93440.16;;;13.10;54.04
30935;BME280;51033;42.648;23.292;2022-11-06T05:10:38;93434.13;;;13.13;53.95
30935;BME280;51033;42.648;23.292;2022-11-06T05:13:03;93457.69;;;13.23;53.75
30935;BME280;51033;42.648;23.292;2022-11-06T05:15:28;93454.13;;;13.31;53.59
30935;BME280;51033;42.648;23.292;2022-11-06T05:17:56;93453.69;;;13.29;53.49
30935;BME280;51033;42.648;23.292;2022-11-06T05:20:21;93468.97;;;13.45;53.40
30935;BME280;51033;42.648;23.292;2022-11-06T05:22:47;93446.19;;;13.35;53.07
30935;BME280;51033;42.648;23.292;2022-11-06T05:25:38;93464.00;;;13.31;53.47
30935;BME280;51033;42.648;23.292;2022-11-06T05:28:05;93446.56;;;13.21;53.58
30935;BME280;51033;42.648;23.292;2022-11-06T05:30:32;93480.44;;;13.45;53.57
30935;BME280;51033;42.648;23.292;2022-11-06T05:32:58;93482.53;;;13.52;53.40
30935;BME280;51033;42.648;23.292;2022-11-06T05:35:24;93468.41;;;13.51;53.29
30935;BME280;51033;42.648;23.292;2022-11-06T05:37:49;93481.66;;;13.60;53.00
30935;BME280;51033;42.648;23.292;2022-11-06T05:40:15;93415.63;;;13.20;53.52
30935;BME280;51033;42.648;23.292;2022-11-06T05:42:41;93467.75;;;13.54;53.41
30935;BME280;51033;42.648;23.292;2022-11-06T05:45:07;93478.75;;;13.53;53.82
30935;BME280;51033;42.648;23.292;2022-11-06T05:47:34;93485.97;;;13.64;53.66
30935;BME280;51033;42.648;23.292;2022-11-06T05:49:59;93484.66;;;13.58;53.91
30935;BME280;51033;42.648;23.292;2022-11-06T05:52:25;93499.13;;;13.57;54.22
30935;BME280;51033;42.648;23.292;2022-11-06T05:54:50;93494.78;;;13.53;54.31
30935;BME280;51033;42.648;23.292;2022-11-06T05:57:16;93482.44;;;13.48;54.24
30935;BME280;51033;42.648;23.292;2022-11-06T05:59:41;93500.03;;;13.61;54.26
30935;BME280;51033;42.648;23.292;2022-11-06T06:02:07;93510.03;;;13.52;54.61
30935;BME280;51033;42.648;23.292;2022-11-06T06:04:32;93498.56;;;13.52;54.88
30935;BME280;51033;42.648;23.292;2022-11-06T06:06:57;93467.13;;;13.33;54.73
30935;BME280;51033;42.648;23.292;2022-11-06T06:09:23;93499.13;;;13.57;54.44
30935;BME280;51033;42.648;23.292;2022-11-06T06:11:52;93477.28;;;13.15;55.40
30935;BME280;51033;42.648;23.292;2022-11-06T06:14:19;93515.56;;;13.19;56.15
30935;BME280;51033;42.648;23.292;2022-11-06T06:16:45;93508.78;;;12.73;57.59
30935;BME280;51033;42.648;23.292;2022-11-06T06:19:11;93491.94;;;12.24;59.59
30935;BME280;51033;42.648;23.292;2022-11-06T06:21:36;93505.28;;;11.91;61.46
30935;BME280;51033;42.648;23.292;2022-11-06T06:24:03;93524.03;;;11.83;62.62
30935;BME280;51033;42.648;23.292;2022-11-06T06:26:28;93527.16;;;11.64;63.84
30935;BME280;51033;42.648;23.292;2022-11-06T06:28:54;93518.00;;;11.53;64.13
30935;BME280;51033;42.648;23.292;2022-11-06T06:31:19;93513.25;;;11.38;65.11
30935;BME280;51033;42.648;23.292;2022-11-06T06:33:45;93537.13;;;11.26;66.10
30935;BME280;51033;42.648;23.292;2022-11-06T06:36:10;93517.13;;;11.20;66.25
30935;BME280;51033;42.648;23.292;2022-11-06T06:38:36;93546.44;;;11.11;67.15
30935;BME280;51033;42.648;23.292;2022-11-06T06:41:02;93533.69;;;10.96;67.55
30935;BME280;51033;42.648;23.292;2022-11-06T06:43:28;93516.81;;;10.62;68.74
30935;BME280;51033;42.648;23.292;2022-11-06T06:45:56;93536.63;;;10.73;69.05
30935;BME280;51033;42.648;23.292;2022-11-06T06:48:22;93531.81;;;10.67;69.22
30935;BME280;51033;42.648;23.292;2022-11-06T06:50:47;93534.69;;;10.53;70.12
30935;BME280;51033;42.648;23.292;2022-11-06T06:53:13;93545.44;;;10.57;70.45
30935;BME280;51033;42.648;23.292;2022-11-06T06:55:38;93536.72;;;10.48;70.76
30935;BME280;51033;42.648;23.292;2022-11-06T06:58:04;93551.28;;;10.42;71.28
30935;BME280;51033;42.648;23.292;2022-11-06T07:00:30;93536.00;;;10.21;71.86
30935;BME280;51033;42.648;23.292;2022-11-06T07:02:55;93563.78;;;10.50;71.33
30935;BME280;51033;42.648;23.292;2022-11-06T07:05:21;93568.28;;;10.58;70.48
30935;BME280;51033;42.648;23.292;2022-11-06T07:07:46;93547.09;;;10.41;70.64
30935;BME280;51033;42.648;23.292;2022-11-06T07:10:12;93567.53;;;10.49;70.86
30935;BME280;51033;42.648;23.292;2022-11-06T07:12:37;93546.75;;;10.33;71.43
30935;BME280;51033;42.648;23.292;2022-11-06T07:15:03;93581.31;;;10.51;71.48
30935;BME280;51033;42.648;23.292;2022-11-06T07:17:29;93580.34;;;10.47;71.65
30935;BME280;51033;42.648;23.292;2022-11-06T07:19:54;93584.75;;;10.34;71.80
30935;BME280;51033;42.648;23.292;2022-11-06T07:22:19;93568.69;;;10.22;71.98
30935;BME280;51033;42.648;23.292;2022-11-06T07:24:45;93566.16;;;10.25;71.60
30935;BME280;51033;42.648;23.292;2022-11-06T07:27:10;93565.84;;;10.27;71.51
30935;BME280;51033;42.648;23.292;2022-11-06T07:29:35;93583.03;;;10.38;71.39
30935;BME280;51033;42.648;23.292;2022-11-06T07:32:01;93584.75;;;10.43;71.68
30935;BME280;51033;42.648;23.292;2022-11-06T07:34:26;93582.25;;;10.38;70.94
30935;BME280;51033;42.648;23.292;2022-11-06T07:36:51;93561.63;;;10.17;71.26
30935;BME280;51033;42.648;23.292;2022-11-06T07:39:17;93590.84;;;10.35;70.91
30935;BME280;51033;42.648;23.292;2022-11-06T07:41:42;93566.16;;;10.25;70.04
30935;BME280;51033;42.648;23.292;2022-11-06T07:44:08;93566.63;;;10.27;69.96
30935;BME280;51033;42.648;23.292;2022-11-06T07:46:33;93588.97;;;10.44;70.05
30935;BME280;51033;42.648;23.292;2022-11-06T07:48:58;93568.81;;;10.25;70.19
30935;BME280;51033;42.648;23.292;2022-11-06T07:51:24;93596.63;;;10.54;69.95
30935;BME280;51033;42.648;23.292;2022-11-06T07:53:49;93596.75;;;10.57;69.81
30935;BME280;51033;42.648;23.292;2022-11-06T07:56:14;93526.34;;;10.08;69.84
30935;BME280;51033;42.648;23.292;2022-11-06T07:58:40;93606.00;;;10.60;69.98
30935;BME280;51033;42.648;23.292;2022-11-06T08:01:13;93575.84;;;10.39;70.30
30935;BME280;51033;42.648;23.292;2022-11-06T08:03:39;93593.78;;;10.59;70.25
30935;BME280;51033;42.648;23.292;2022-11-06T08:06:05;93588.63;;;10.54;70.31
30935;BME280;51033;42.648;23.292;2022-11-06T08:08:31;93601.69;;;10.76;70.26
30935;BME280;51033;42.648;23.292;2022-11-06T08:11:07;93599.69;;;10.73;70.16
30935;BME280;51033;42.648;23.292;2022-11-06T08:13:34;93616.38;;;10.82;70.04
30935;BME280;51033;42.648;23.292;2022-11-06T08:16:07;93592.97;;;10.76;70.02
30935;BME280;51033;42.648;23.292;2022-11-06T08:18:32;93595.88;;;10.83;69.57
30935;BME280;51033;42.648;23.292;2022-11-06T08:20:58;93579.94;;;10.83;69.78
30935;BME280;51033;42.648;23.292;2022-11-06T08:23:23;93609.44;;;10.98;70.26
30935;BME280;51033;42.648;23.292;2022-11-06T08:25:54;93590.38;;;10.88;70.44
30935;BME280;51033;42.648;23.292;2022-11-06T08:28:19;93609.88;;;11.00;70.72
30935;BME280;51033;42.648;23.292;2022-11-06T08:30:45;93579.63;;;10.84;70.47
30935;BME280;51033;42.648;23.292;2022-11-06T08:33:10;93613.03;;;11.02;70.95
30935;BME280;51033;42.648;23.292;2022-11-06T08:35:36;93613.41;;;10.84;71.11
30935;BME280;51033;42.648;23.292;2022-11-06T08:38:02;93604.81;;;10.78;72.64
30935;BME280;51033;42.648;23.292;2022-11-06T08:40:28;93621.44;;;10.75;73.69
30935;BME280;51033;42.648;23.292;2022-11-06T08:43:01;93594.59;;;10.51;74.97
30935;BME280;51033;42.648;23.292;2022-11-06T08:45:27;93629.75;;;10.65;75.80
30935;BME280;51033;42.648;23.292;2022-11-06T08:47:52;93606.50;;;10.45;77.01
30935;BME280;51033;42.648;23.292;2022-11-06T08:50:18;93645.41;;;10.58;77.44
30935;BME280;51033;42.648;23.292;2022-11-06T08:52:43;93649.16;;;10.57;77.32
30935;BME280;51033;42.648;23.292;2022-11-06T08:55:08;93635.06;;;10.56;77.87
30935;BME280;51033;42.648;23.292;2022-11-06T08:57:34;93648.34;;;10.73;77.53
30935;BME280;51033;42.648;23.292;2022-11-06T08:59:59;93656.28;;;10.82;77.10
30935;BME280;51033;42.648;23.292;2022-11-06T09:02:25;93645.78;;;10.86;77.48
30935;BME280;51033;42.648;23.292;2022-11-06T09:04:50;93652.97;;;10.94;76.75
30935;BME280;51033;42.648;23.292;2022-11-06T09:07:16;93633.09;;;10.91;76.62
30935;BME280;51033;42.648;23.292;2022-11-06T09:09:42;93648.72;;;11.01;76.90
30935;BME280;51033;42.648;23.292;2022-11-06T09:12:07;93642.41;;;11.14;76.71
30935;BME280;51033;42.648;23.292;2022-11-06T09:14:34;93642.72;;;11.13;76.14
30935;BME280;51033;42.648;23.292;2022-11-06T09:16:59;93651.13;;;11.24;77.16
30935;BME280;51033;42.648;23.292;2022-11-06T09:19:25;93651.94;;;11.15;77.10
30935;BME280;51033;42.648;23.292;2022-11-06T09:21:50;93592.97;;;10.67;77.29
30935;BME280;51033;42.648;23.292;2022-11-06T09:24:16;93621.75;;;10.73;78.26
30935;BME280;51033;42.648;23.292;2022-11-06T09:26:41;93654.84;;;10.93;78.24
30935;BME280;51033;42.648;23.292;2022-11-06T09:29:06;93649.06;;;10.91;78.75
30935;BME280;51033;42.648;23.292;2022-11-06T09:31:32;93634.28;;;10.64;78.84
30935;BME280;51033;42.648;23.292;2022-11-06T09:33:57;93647.09;;;10.71;78.96
30935;BME280;51033;42.648;23.292;2022-11-06T09:36:23;93634.91;;;10.70;79.06
30935;BME280;51033;42.648;23.292;2022-11-06T09:38:48;93646.16;;;10.67;79.00
30935;BME280;51033;42.648;23.292;2022-11-06T09:46:44;93653.75;;;10.94;77.87
30935;BME280;51033;42.648;23.292;2022-11-06T09:49:31;93662.59;;;11.15;77.50
30935;BME280;51033;42.648;23.292;2022-11-06T09:52:16;93626.31;;;11.02;77.15
30935;BME280;51033;42.648;23.292;2022-11-06T09:55:04;93667.19;;;11.36;77.15
30935;BME280;51033;42.648;23.292;2022-11-06T09:57:35;93670.50;;;11.33;76.71
30935;BME280;51033;42.648;23.292;2022-11-06T10:00:05;93653.63;;;11.29;76.86
30935;BME280;51033;42.648;23.292;2022-11-06T10:02:39;93636.78;;;11.07;76.56
30935;BME280;51033;42.648;23.292;2022-11-06T10:07:49;93655.84;;;11.18;76.45
30935;BME280;51033;42.648;23.292;2022-11-06T10:10:18;93644.31;;;11.05;75.49
30935;BME280;51033;42.648;23.292;2022-11-06T10:13:13;93651.31;;;11.18;75.71
30935;BME280;51033;42.648;23.292;2022-11-06T10:18:20;93658.03;;;11.25;75.26
30935;BME280;51033;42.648;23.292;2022-11-06T10:20:52;93653.25;;;11.39;75.36
30935;BME280;51033;42.648;23.292;2022-11-06T10:29:39;93660.78;;;11.37;73.68
30935;BME280;51033;42.648;23.292;2022-11-06T10:34:22;93659.13;;;11.24;73.68
30935;BME280;51033;42.648;23.292;2022-11-06T10:36:56;93664.28;;;11.29;73.46
30935;BME280;51033;42.648;23.292;2022-11-06T10:39:30;93647.66;;;11.32;73.30
30935;BME280;51033;42.648;23.292;2022-11-06T10:42:01;93610.00;;;11.12;73.42
30935;BME280;51033;42.648;23.292;2022-11-06T10:47:14;93661.34;;;11.51;72.94
30935;BME280;51033;42.648;23.292;2022-11-06T10:49:49;93667.16;;;11.44;72.63
30935;BME280;51033;42.648;23.292;2022-11-06T10:57:45;93658.94;;;11.29;72.92
30935;BME280;51033;42.648;23.292;2022-11-06T11:00:13;93665.91;;;11.12;73.98
30935;BME280;51033;42.648;23.292;2022-11-06T11:02:48;93637.75;;;11.03;74.47
30935;BME280;51033;42.648;23.292;2022-11-06T11:05:17;93666.31;;;11.23;75.10
30935;BME280;51033;42.648;23.292;2022-11-06T11:07:44;93671.97;;;11.22;75.35
30935;BME280;51033;42.648;23.292;2022-11-06T11:12:53;93645.13;;;10.97;77.11
30935;BME280;51033;42.648;23.292;2022-11-06T11:15:20;93674.97;;;11.11;77.53
30935;BME280;51033;42.648;23.292;2022-11-06T11:20:48;93668.44;;;11.00;77.50
30935;BME280;51033;42.648;23.292;2022-11-06T11:23:18;93671.41;;;11.07;77.63
30935;BME280;51033;42.648;23.292;2022-11-06T11:25:47;93671.88;;;11.09;77.05
30935;BME280;51033;42.648;23.292;2022-11-06T11:28:34;93669.38;;;11.04;77.63
30935;BME280;51033;42.648;23.292;2022-11-06T11:31:10;93669.78;;;11.15;78.13
30935;BME280;51033;42.648;23.292;2022-11-06T11:33:39;93620.75;;;10.95;77.94
30935;BME280;51033;42.648;23.292;2022-11-06T11:36:06;93653.69;;;11.11;77.11
30935;BME280;51033;42.648;23.292;2022-11-06T11:38:35;93667.72;;;11.21;76.99
30935;BME280;51033;42.648;23.292;2022-11-06T11:41:28;93652.28;;;11.14;76.43
30935;BME280;51033;42.648;23.292;2022-11-06T11:44:14;93664.09;;;11.34;76.30
30935;BME280;51033;42.648;23.292;2022-11-06T11:46:50;93658.44;;;11.35;75.37
30935;BME280;51033;42.648;23.292;2022-11-06T11:49:33;93642.44;;;11.35;75.03
30935;BME280;51033;42.648;23.292;2022-11-06T11:52:10;93658.78;;;11.63;74.81
30935;BME280;51033;42.648;23.292;2022-11-06T11:54:36;93665.47;;;11.69;74.18
30935;BME280;51033;42.648;23.292;2022-11-06T11:57:05;93666.00;;;11.63;73.98
30935;BME280;51033;42.648;23.292;2022-11-06T11:59:53;93661.00;;;11.61;73.92
30935;BME280;51033;42.648;23.292;2022-11-06T12:02:34;93641.16;;;11.41;74.70
30935;BME280;51033;42.648;23.292;2022-11-06T12:05:12;93630.38;;;11.38;75.74
30935;BME280;51033;42.648;23.292;2022-11-06T12:07:45;93625.31;;;11.24;75.97
30935;BME280;51033;42.648;23.292;2022-11-06T12:10:37;93654.63;;;11.45;76.33
30935;BME280;51033;42.648;23.292;2022-11-06T12:13:17;93653.53;;;11.46;75.79
30935;BME280;51033;42.648;23.292;2022-11-06T12:18:36;93665.53;;;11.23;75.55
30935;BME280;51033;42.648;23.292;2022-11-06T12:26:08;93661.91;;;11.27;75.74
30935;BME280;51033;42.648;23.292;2022-11-06T12:28:39;93668.44;;;11.38;75.52
30935;BME280;51033;42.648;23.292;2022-11-06T12:31:35;93669.59;;;11.29;75.23
30935;BME280;51033;42.648;23.292;2022-11-06T12:34:06;93637.84;;;11.15;74.58
30935;BME280;51033;42.648;23.292;2022-11-06T12:36:42;93648.28;;;11.29;74.42
30935;BME280;51033;42.648;23.292;2022-11-06T12:39:15;93647.81;;;11.27;74.75
30935;BME280;51033;42.648;23.292;2022-11-06T12:41:46;93629.69;;;11.20;74.16
30935;BME280;51033;42.648;23.292;2022-11-06T12:44:15;93663.16;;;11.30;74.10
30935;BME280;51033;42.648;23.292;2022-11-06T13:05:34;93664.13;;;11.63;72.85
30935;BME280;51033;42.648;23.292;2022-11-06T13:08:10;93628.81;;;11.37;72.80
30935;BME280;51033;42.648;23.292;2022-11-06T13:14:10;93660.06;;;11.57;72.25
30935;BME280;51033;42.648;23.292;2022-11-06T13:16:54;93663.53;;;11.49;72.36
30935;BME280;51033;42.648;23.292;2022-11-06T13:30:27;93658.38;;;11.14;73.22
30935;BME280;51033;42.648;23.292;2022-11-06T13:35:36;93655.72;;;11.14;72.92
30935;BME280;51033;42.648;23.292;2022-11-06T13:38:08;93693.19;;;11.39;73.03
30935;BME280;51033;42.648;23.292;2022-11-06T13:40:42;93685.84;;;11.36;73.24
30935;BME280;51033;42.648;23.292;2022-11-06T13:43:49;93693.66;;;11.41;72.74
30935;BME280;51033;42.648;23.292;2022-11-06T13:46:20;93687.53;;;11.40;72.99
30935;BME280;51033;42.648;23.292;2022-11-06T13:48:55;93697.03;;;11.50;72.78
30935;BME280;51033;42.648;23.292;2022-11-06T13:51:53;93701.00;;;11.52;72.92
30935;BME280;51033;42.648;23.292;2022-11-06T14:03:17;93665.41;;;11.57;71.30
30935;BME280;51033;42.648;23.292;2022-11-06T14:05:54;93696.94;;;11.76;70.92
30935;BME280;51033;42.648;23.292;2022-11-06T14:08:41;93693.91;;;11.86;69.94
30935;BME280;51033;42.648;23.292;2022-11-06T14:11:16;93667.63;;;11.76;69.59
30935;BME280;51033;42.648;23.292;2022-11-06T14:14:03;93683.78;;;12.00;68.84
30935;BME280;51033;42.648;23.292;2022-11-06T14:16:36;93683.78;;;12.00;68.56
30935;BME280;51033;42.648;23.292;2022-11-06T14:19:11;93670.50;;;11.91;68.00
30935;BME280;51033;42.648;23.292;2022-11-06T14:21:50;93691.09;;;12.03;67.01
30935;BME280;51033;42.648;23.292;2022-11-06T14:24:34;93694.56;;;12.03;67.02
30935;BME280;51033;42.648;23.292;2022-11-06T14:27:08;93673.31;;;11.95;66.72
30935;BME280;51033;42.648;23.292;2022-11-06T14:32:10;93693.94;;;12.07;66.20
30935;BME280;51033;42.648;23.292;2022-11-06T14:34:39;93701.25;;;11.89;66.42
30935;BME280;51033;42.648;23.292;2022-11-06T14:44:56;93690.72;;;11.34;67.72
30935;BME280;51033;42.648;23.292;2022-11-06T14:49:53;93713.47;;;11.23;67.94
30935;BME280;51033;42.648;23.292;2022-11-06T14:52:22;93695.97;;;11.13;67.73
30935;BME280;51033;42.648;23.292;2022-11-06T14:54:54;93696.91;;;11.08;66.77
30935;BME280;51033;42.648;23.292;2022-11-06T14:57:45;93714.50;;;11.30;66.52
30935;BME280;51033;42.648;23.292;2022-11-06T15:00:32;93709.19;;;11.30;66.41
30935;BME280;51033;42.648;23.292;2022-11-06T15:02:59;93694.34;;;11.21;66.11
30935;BME280;51033;42.648;23.292;2022-11-06T15:05:25;93702.16;;;11.26;66.12
30935;BME280;51033;42.648;23.292;2022-11-06T15:07:54;93721.84;;;11.42;65.94
30935;BME280;51033;42.648;23.292;2022-11-06T15:13:22;93733.22;;;11.59;65.08
30935;BME280;51033;42.648;23.292;2022-11-06T15:15:50;93720.06;;;11.63;64.63
30935;BME280;51033;42.648;23.292;2022-11-06T15:18:19;93725.81;;;11.65;64.48
30935;BME280;51033;42.648;23.292;2022-11-06T15:20:58;93736.03;;;11.63;64.47
30935;BME280;51033;42.648;23.292;2022-11-06T15:23:30;93742.28;;;11.67;64.29
30935;BME280;51033;42.648;23.292;2022-11-06T15:26:05;93731.34;;;11.60;64.81